map of EGDM home
EGDM - Airport
Location
City:  Boscombe Down, Wiltshire, England, United Kingdom
ICAO:EGDM

Details
Type:Airport (Aerodrome, Airfield)
Use:Military
Latitude:5109'08"N (51.152189)
Longitude:144'51"W (-1.747413)
Datum:WGS 1984
Elevation:407 ft (124 m)
Variation:0.58W (WMM2015v2 magnetic declination)
0.19 annual change
Runways:2
Longest:10538 × 150 ft (3212 × 45.5 m), paved

Time
Time Zone:UTC+0 (DST+1)
Local Time:

Weather
METAR:EGDM 041350Z 29009KT 9999 FEW004 SCT006 BKN015 09/09 Q1016 YLO1 BECMG SCT015 WHT

Related Locations
Nearby:
Farthest:NZTI: 11920 mi / 19183 km
Taieri, OTA, NZ

Find:

   beyond  
but within

Other Information
Maps:
NOTAMs:
Links:
Sources:

  
  • flag of United Kingdom
  • flag of England
  

Sectional Chart

Flight Planning
at skyvector.com

Satellite Image

Google Maps Satellite view

 

Copyright © 2004-2019 Karl L. Swartz. All rights reserved.
The Great Circle Mapper name and logo are trademarks of the Great Circle Mapper.
All other trademarks mentioned herein belong to their respective owners.
Please see credits for attibutions and further copyright information.

  Follow gcmap on Facebook Follow gcmap on Twitter GCmap on LinkedIn

hCard Microformat

Geo Microformat